Satelliet + Buien/onweerradar
Bron: Weerslag
Temperatuur
Bron: Weerslag
Gevoelstemperatuur
Bron: Weerplaza
Zicht
Bron: Weerplaza
Meest Recent
11-01-2019 Linnich (Duitsland) 03:20:14 2.2 schaal van Richter 12.0 km diepte
Aardbevingen NL - Kaart
Wit:
vandaag
tm 1 week
Geel:
1 week
tm 1 maand
Groen:
1 maand
tm 2 maanden
Oranje:
2 maanden
tm 4 maanden
Rood:
4 maanden
tm 8 maanden
Paars:
8 maanden >
Aardbevingen NL - Textueel laatste 30 meldingen - (uitklapbaar)
# Datum Plaats Tijd Mag Diepte Type Lat Long
1 11-01-2019 Linnich (Duitsland) 03:20:14 2.2 12.0 km Tektonisch 51.005 6.330
2 09-01-2019 Veendam 02:44:36 1.0 1.0 km niet Tektonisch 53.088 6.925
3 07-01-2019 Theux (België) 19:11:34 1.2 12.0 km Tektonisch 50.532 5.855
4 07-01-2019 Veendam 11:12:49 1.3 3.0 km niet Tektonisch 53.110 6.863
5 06-01-2019 Heerlen 20:08:47 1.2 9.0 km Tektonisch 50.906 5.991
6 06-01-2019 Heerlen 13:39:45 1.4 9.0 km Tektonisch 50.910 5.992
7 31-12-2018 Eschweiler (Duitsland) 01:51:18 1.3 9.0 km Tektonisch 50.821 6.229
8 23-12-2018 Lageland 23:16:03 1.3 3.0 km niet Tektonisch 53.239 6.730
9 23-12-2018 Kantens 15:08:05 0.5 3.0 km niet Tektonisch 53.354 6.626
10 22-12-2018 Alsdorf (Duitsland) 06:27:22 1.4 15.0 km Tektonisch 50.875 6.214
11 22-12-2018 Garrelsweer 04:54:11 1.2 3.0 km niet Tektonisch 53.285 6.776
12 19-12-2018 Bedum 18:55:17 1.0 3.0 km niet Tektonisch 53.296 6.568
13 17-12-2018 Overschild 14:08:59 0.4 3.0 km niet Tektonisch 53.277 6.825
14 17-12-2018 Munstergeleen 04:34:46 1.0 15.0 km Tektonisch 50.970 5.867
15 11-12-2018 Bedum 20:50:10 0.6 3.0 km niet Tektonisch 53.277 6.617
16 05-12-2018 Oosterwijtwerd 06:40:01 0.4 3.0 km niet Tektonisch 53.328 6.830
17 02-12-2018 Overschild 10:09:38 0.9 3.0 km niet Tektonisch 53.250 6.763
18 29-11-2018 Eygelshoven 19:36:09 1.7 9.0 km Tektonisch 50.898 6.072
19 29-11-2018 Kantens 02:54:18 0.9 3.0 km niet Tektonisch 53.358 6.623
20 25-11-2018 Eppenhuizen 19:37:37 1.6 3.0 km niet Tektonisch 53.385 6.716
21 25-11-2018 Kantens 09:29:48 0.6 3.0 km niet Tektonisch 53.375 6.659
22 17-11-2018 Roetgen (Duitsland) 05:25:02 2.6 5.0 km Tektonisch 50.654 6.252
23 16-11-2018 Borgercompagnie 05:16:02 1.2 3.0 km niet Tektonisch 53.090 6.834
24 16-11-2018 Hellum 01:40:27 0.8 3.0 km niet Tektonisch 53.250 6.857
25 09-11-2018 Eppenhuizen 15:41:12 1.6 3.0 km niet Tektonisch 53.367 6.680
26 07-11-2018 Schildwolde 00:23:25 0.8 3.0 km niet Tektonisch 53.217 6.838
27 29-10-2018 Zandeweer 15:37:45 0.8 3.0 km niet Tektonisch 53.386 6.672
28 23-10-2018 Appingedam 14:10:53 0.8 3.0 km niet Tektonisch 53.298 6.834
29 20-10-2018 Appingedam 04:53:25 0.8 3.0 km niet Tektonisch 53.323 6.875
30 17-10-2018 Cappeln (Duitsland) 23:56:15 2.6 3.0 km niet Tektonisch 52.761 8.054